createdAt,value
2023-03-26T08:39:15.884Z,983.43
2023-03-26T09:01:13.337Z,983.28
2023-03-26T09:01:47.534Z,983.18
2023-03-26T09:02:47.668Z,983.22
2023-03-26T09:03:47.676Z,983.25
2023-03-26T09:04:47.409Z,983.20
2023-03-26T09:05:47.435Z,983.22
2023-03-26T09:06:47.489Z,983.20
2023-03-26T09:07:47.358Z,983.17
2023-03-26T09:08:53.843Z,983.15
2023-03-26T09:09:48.353Z,983.19
2023-03-26T09:10:47.418Z,983.20
2023-03-26T09:11:47.411Z,983.20
2023-03-26T09:12:47.268Z,983.12
2023-03-26T09:14:08.085Z,983.11
2023-03-26T09:14:47.295Z,983.09
2023-03-26T09:15:47.486Z,983.12
2023-03-26T09:16:47.394Z,983.08
2023-03-26T09:17:47.477Z,983.09
2023-03-26T09:18:47.332Z,983.11
2023-03-26T09:19:47.364Z,983.05
2023-03-26T09:20:47.369Z,983.03
2023-03-26T09:21:47.402Z,983.02
2023-03-26T09:22:47.450Z,983.02
2023-03-26T09:23:47.420Z,983.01
2023-03-26T09:24:47.318Z,982.97
2023-03-26T09:25:47.355Z,982.98
2023-03-26T09:26:47.271Z,982.95
2023-03-26T09:27:47.223Z,983.00
2023-03-26T09:28:47.276Z,983.00
2023-03-26T09:29:47.250Z,982.93
2023-03-26T09:30:47.227Z,982.92
2023-03-26T09:31:47.401Z,982.92
2023-03-26T09:32:47.277Z,982.89
2023-03-26T09:33:47.267Z,982.91
2023-03-26T09:34:47.302Z,982.94
2023-03-26T09:35:47.220Z,982.93
2023-03-26T09:36:47.810Z,982.93
2023-03-26T09:37:56.420Z,982.89
2023-03-26T09:38:48.365Z,982.93
2023-03-26T09:41:40.580Z,982.86
2023-03-26T09:42:42.063Z,982.87
2023-03-26T09:43:42.013Z,982.93
2023-03-26T09:44:42.262Z,982.96
2023-03-26T09:45:42.165Z,982.85
2023-03-26T09:46:41.852Z,982.86
2023-03-26T09:47:41.846Z,982.91
2023-03-26T09:48:42.732Z,982.81
2023-03-26T09:49:41.793Z,982.85
2023-03-26T09:50:41.612Z,982.81
2023-03-26T09:51:41.740Z,982.87
2023-03-26T09:52:41.681Z,982.83
2023-03-26T09:53:41.652Z,982.82
2023-03-26T09:54:41.623Z,982.78
2023-03-26T09:56:02.127Z,982.79
2023-03-26T09:56:41.646Z,982.81
2023-03-26T09:57:41.795Z,982.79
2023-03-26T10:37:39.948Z,982.58
2023-03-26T10:38:41.154Z,982.66
2023-03-26T10:39:41.627Z,982.60
2023-03-26T10:40:40.087Z,982.70
2023-03-26T10:41:40.686Z,982.71
2023-03-26T10:42:40.070Z,982.71
2023-03-26T10:43:39.974Z,982.67
2023-03-26T10:44:39.981Z,982.70
2023-03-26T10:45:40.158Z,982.59
2023-03-26T10:46:40.280Z,982.73
2023-03-26T10:47:40.750Z,982.70
2023-03-26T10:48:39.999Z,982.71
2023-03-26T10:49:40.519Z,982.75
2023-03-26T10:50:40.289Z,982.67
2023-03-26T10:51:40.399Z,982.66
2023-03-26T10:52:40.005Z,982.66
2023-03-26T10:53:40.223Z,982.59
2023-03-26T10:54:40.227Z,982.55
2023-03-26T10:55:40.248Z,982.65
2023-03-26T11:50:58.724Z,982.63
2023-03-26T11:51:30.858Z,982.46
2023-03-26T11:52:30.806Z,982.54
2023-03-26T11:53:31.206Z,982.52
2023-03-26T11:54:31.117Z,982.57
2023-03-26T11:55:44.545Z,982.52
2023-03-26T11:56:31.724Z,982.49
2023-03-26T11:57:31.228Z,982.55
2023-03-26T11:58:31.984Z,982.54
2023-03-26T11:59:32.690Z,982.53
2023-03-26T12:00:45.736Z,982.47
2023-03-26T12:01:32.437Z,982.52
2023-03-26T12:02:31.213Z,982.46
2023-03-26T12:03:33.213Z,982.50
2023-03-26T12:04:32.305Z,982.39
2023-03-26T12:05:31.971Z,982.41
2023-03-26T12:06:31.007Z,982.31
2023-03-26T12:07:31.093Z,982.32
2023-03-26T12:08:30.874Z,982.21
2023-03-26T12:09:30.672Z,982.28
2023-03-26T12:10:30.736Z,982.24
2023-03-26T15:31:02.442Z,980.56
2023-03-26T15:31:10.371Z,980.56
2023-03-26T15:32:04.845Z,980.52
2023-03-26T15:33:05.035Z,980.51
2023-03-26T15:34:04.885Z,980.53
2023-03-26T15:35:04.989Z,980.47
2023-03-26T15:36:05.229Z,980.43
2023-03-26T15:37:04.799Z,980.47
2023-03-26T15:38:04.714Z,980.49
2023-03-26T15:39:04.802Z,980.50
2023-03-26T15:40:04.967Z,980.47
2023-03-26T15:41:04.892Z,980.51
2023-03-26T15:42:04.611Z,980.43
2023-03-26T15:43:04.701Z,980.43
2023-03-26T15:44:23.680Z,980.44
2023-03-26T15:45:06.703Z,980.49
2023-03-26T15:46:04.975Z,980.49
2023-03-26T15:47:04.709Z,980.49
2023-03-26T15:48:04.934Z,980.48
2023-03-26T15:49:04.787Z,980.43
2023-03-26T15:50:04.841Z,980.44
2023-03-26T15:51:04.345Z,980.48
2023-03-26T15:52:04.776Z,980.46
2023-03-26T15:53:04.677Z,980.51
2023-03-26T15:54:04.673Z,980.51
2023-03-26T15:55:04.614Z,980.50
2023-03-26T15:56:04.782Z,980.50
2023-03-26T15:57:04.831Z,980.46
2023-03-26T15:58:04.947Z,980.45
2023-03-26T15:59:04.597Z,980.46
2023-03-26T16:00:04.699Z,980.44
2023-03-26T16:01:04.904Z,980.45
2023-03-26T16:02:04.572Z,980.44
2023-03-26T16:03:05.082Z,980.50
2023-03-26T16:04:04.761Z,980.49
2023-03-26T16:05:04.705Z,980.36
2023-03-26T16:06:04.755Z,980.45
2023-03-26T16:07:04.450Z,980.52
2023-03-26T16:08:04.719Z,980.42
2023-03-26T16:09:04.943Z,980.40
2023-03-26T16:10:04.643Z,980.41
2023-03-26T16:11:04.993Z,980.42
2023-03-26T16:12:04.825Z,980.49
2023-03-26T16:13:04.574Z,980.46
2023-03-26T16:14:04.833Z,980.47
2023-03-26T16:15:04.635Z,980.42
2023-03-26T16:16:04.619Z,980.48
2023-03-26T16:17:04.471Z,980.43
2023-03-26T16:18:04.667Z,980.44
2023-03-26T16:19:05.361Z,980.45
2023-03-26T16:20:04.531Z,980.44
2023-03-26T16:21:04.461Z,980.43
2023-03-26T16:22:04.355Z,980.45
2023-03-26T16:23:04.303Z,980.48
2023-03-26T16:24:04.576Z,980.49
2023-03-26T16:25:26.599Z,980.48
2023-03-26T16:26:05.435Z,980.51
2023-03-26T16:27:04.907Z,980.45
2023-03-26T16:28:04.557Z,980.52
2023-03-26T16:30:04.433Z,980.52
2023-03-26T16:31:05.221Z,980.56
2023-03-26T16:32:05.390Z,980.64
2023-03-26T16:33:04.454Z,980.66
2023-03-26T16:34:04.502Z,980.64
2023-03-26T16:35:04.488Z,980.67
2023-03-26T16:36:04.783Z,980.63
2023-03-26T16:37:04.544Z,980.69
2023-03-26T16:38:04.546Z,980.67
2023-03-26T16:39:04.737Z,980.68
2023-03-26T16:40:04.608Z,980.62
2023-03-26T16:41:04.425Z,980.65
2023-03-26T16:42:06.294Z,980.69
2023-03-26T16:43:04.612Z,980.64
2023-03-26T16:49:31.966Z,980.86
2023-03-26T16:50:33.576Z,980.82
2023-03-26T16:51:33.447Z,980.92
2023-03-26T16:52:33.527Z,980.89
2023-03-26T16:53:33.901Z,980.90
2023-03-26T16:54:36.872Z,980.88
2023-03-26T16:55:34.566Z,980.91
2023-03-26T16:56:33.609Z,980.89
2023-03-26T16:57:33.925Z,980.97
2023-03-26T16:58:33.842Z,980.95
2023-03-26T16:59:34.515Z,980.95
2023-03-26T17:00:33.619Z,980.93
2023-03-26T17:01:33.638Z,980.99
2023-03-26T17:02:33.447Z,981.01
2023-03-26T17:03:33.512Z,980.93
2023-03-26T17:04:33.747Z,981.05
2023-03-26T17:05:33.429Z,981.03
2023-03-26T17:06:33.349Z,981.07
2023-03-26T17:07:33.589Z,981.08
2023-03-26T17:08:36.446Z,981.08
2023-03-26T17:09:33.879Z,981.09
2023-03-26T17:10:33.680Z,981.15
2023-03-26T17:11:33.399Z,981.14
2023-03-26T17:12:34.527Z,981.06
2023-03-26T17:13:33.573Z,981.13
2023-03-26T17:14:33.530Z,981.15
2023-03-26T17:15:34.637Z,981.11
2023-03-26T17:16:33.503Z,981.17
2023-03-26T17:17:33.467Z,981.13
2023-03-26T17:18:33.537Z,981.20
2023-03-26T17:19:33.462Z,981.22
2023-03-26T17:20:33.592Z,981.20
2023-03-26T17:21:45.887Z,981.25
2023-03-26T17:22:34.394Z,981.24
2023-03-26T17:23:33.326Z,981.30
2023-03-26T17:24:33.228Z,981.29
2023-03-26T17:25:33.230Z,981.33
2023-03-26T17:26:33.573Z,981.37
2023-03-26T17:27:33.353Z,981.37
2023-03-26T17:28:33.313Z,981.36
2023-03-26T17:29:34.201Z,981.38
2023-03-26T17:30:33.335Z,981.43
2023-03-26T17:31:33.791Z,981.37
2023-03-26T17:32:33.290Z,981.45
2023-03-26T17:33:34.603Z,981.48
2023-03-26T17:34:33.398Z,981.44
2023-03-26T17:35:33.367Z,981.52
2023-03-26T17:36:34.490Z,981.53
2023-03-26T17:37:33.262Z,981.49
2023-03-26T17:38:33.105Z,981.54
2023-03-26T17:39:33.226Z,981.61
2023-03-26T17:40:33.209Z,981.69
2023-03-26T17:41:33.283Z,981.68
2023-03-26T17:42:33.525Z,981.66
2023-03-26T17:43:33.283Z,981.69
2023-03-26T17:44:33.231Z,981.61
2023-03-26T17:45:33.242Z,981.75
2023-03-26T17:46:33.365Z,981.66
2023-03-26T17:47:33.260Z,981.67
2023-03-26T17:48:33.201Z,981.69
2023-03-26T17:49:33.742Z,981.75
2023-03-26T19:56:21.975Z,983.63
2023-03-26T19:57:23.348Z,983.57
2023-03-26T19:58:23.625Z,983.69
2023-03-26T19:59:23.066Z,983.62
2023-03-26T20:00:23.165Z,983.69
2023-03-26T20:01:23.372Z,983.65
2023-03-26T20:02:23.040Z,983.64
2023-03-26T20:03:23.402Z,983.72
2023-03-26T20:04:23.071Z,983.69
2023-03-26T20:05:24.068Z,983.74
2023-03-26T20:06:28.148Z,983.75
2023-03-26T20:07:35.674Z,983.76
2023-03-26T20:08:24.104Z,983.84
2023-03-26T20:09:23.200Z,983.83
2023-03-26T20:10:22.937Z,983.81
2023-03-26T20:11:23.074Z,983.90
2023-03-26T20:12:24.592Z,983.91
2023-03-26T20:13:23.118Z,983.86
2023-03-26T20:14:24.078Z,983.88
2023-03-26T20:15:23.030Z,984.02
2023-03-26T20:16:23.206Z,984.05
2023-03-26T20:17:22.930Z,984.02
2023-03-26T20:18:23.346Z,983.93
2023-03-26T20:19:30.427Z,984.07
2023-03-26T20:20:22.861Z,984.09
2023-03-26T20:21:23.019Z,984.07
2023-03-26T20:22:22.954Z,984.03
2023-03-26T20:23:27.139Z,984.10
2023-03-26T20:24:22.963Z,984.23
2023-03-26T20:25:23.131Z,984.25
2023-03-26T20:26:30.274Z,984.15
2023-03-26T20:27:22.960Z,984.39
2023-03-26T20:28:23.041Z,984.34
2023-03-26T20:29:22.911Z,984.42
2023-03-26T21:00:21.275Z,984.87
2023-03-26T21:01:02.622Z,984.95
2023-03-26T21:02:02.453Z,984.98
2023-03-26T21:03:02.273Z,985.03
2023-03-26T21:04:04.280Z,984.95
2023-03-26T21:05:02.098Z,984.97
2023-03-26T21:28:05.419Z,985.32
2023-03-26T21:28:42.260Z,985.49
2023-03-26T21:29:39.443Z,985.50
2023-03-26T21:30:37.209Z,985.43
2023-03-26T21:31:37.457Z,985.49
2023-03-26T21:32:37.491Z,985.53
2023-03-26T21:45:56.448Z,985.75
2023-03-26T21:46:53.400Z,985.72
